createdAt,value
2023-05-17T00:03:56.778Z,1.80
2023-05-17T00:08:06.219Z,3.60
2023-05-17T00:12:15.202Z,3.03
2023-05-17T00:16:25.841Z,3.43
2023-05-17T00:20:34.979Z,3.20
2023-05-17T00:24:43.958Z,2.27
2023-05-17T00:28:53.084Z,2.03
2023-05-17T00:33:03.764Z,4.60
2023-05-17T00:37:12.873Z,2.27
2023-05-17T00:41:21.893Z,2.97
2023-05-17T00:45:31.026Z,2.43
2023-05-17T00:49:41.619Z,3.43
2023-05-17T00:53:51.040Z,2.80
2023-05-17T00:58:00.242Z,2.33
2023-05-17T01:02:09.445Z,1.77
2023-05-17T01:06:20.240Z,2.70
2023-05-17T01:10:37.708Z,2.80
2023-05-17T01:14:56.177Z,2.37
2023-05-17T01:19:14.326Z,1.13
2023-05-17T01:23:37.945Z,2.17
2023-05-17T01:27:52.182Z,2.33
2023-05-17T01:32:04.021Z,3.13
2023-05-17T01:36:13.135Z,2.43
2023-05-17T01:40:22.351Z,2.47
2023-05-17T01:44:39.866Z,1.63
2023-05-17T01:48:55.113Z,2.50
2023-05-17T01:53:10.607Z,2.40
2023-05-17T01:57:26.729Z,2.40
2023-05-17T02:01:37.901Z,1.27
2023-05-17T02:05:46.890Z,2.80
2023-05-17T02:09:56.023Z,2.30
2023-05-17T02:14:05.015Z,2.20
2023-05-17T02:18:15.654Z,2.27
2023-05-17T02:22:24.777Z,1.63
2023-05-17T02:26:34.034Z,1.80
2023-05-17T02:30:43.425Z,3.63
2023-05-17T02:34:54.014Z,1.60
2023-05-17T02:39:03.166Z,1.60
2023-05-17T02:43:12.266Z,1.30
2023-05-17T02:47:21.608Z,1.87
2023-05-17T02:51:32.549Z,1.50
2023-05-17T02:55:41.530Z,3.17
2023-05-17T02:59:50.601Z,2.40
2023-05-17T03:03:59.761Z,1.47
2023-05-17T03:08:10.561Z,3.33
2023-05-17T03:12:21.422Z,1.87
2023-05-17T03:16:30.578Z,4.73
2023-05-17T03:20:39.581Z,5.50
2023-05-17T03:24:50.097Z,3.37
2023-05-17T03:28:59.161Z,3.03
2023-05-17T03:33:08.249Z,3.83
2023-05-17T03:37:17.667Z,2.43
2023-05-17T03:41:28.477Z,4.60
2023-05-17T03:45:37.472Z,4.30
2023-05-17T03:49:46.682Z,3.67
2023-05-17T03:54:02.305Z,5.10
2023-05-17T03:58:12.953Z,3.20
2023-05-17T04:02:22.121Z,5.03
2023-05-17T04:06:31.187Z,3.87
2023-05-17T04:10:42.295Z,4.30
2023-05-17T04:14:52.879Z,3.20
2023-05-17T04:19:02.521Z,4.07
2023-05-17T04:23:11.634Z,5.37
2023-05-17T04:27:22.301Z,4.03
2023-05-17T04:31:33.772Z,5.70
2023-05-17T04:35:44.596Z,4.10
2023-05-17T04:39:54.268Z,4.03
2023-05-17T04:44:03.250Z,4.03
2023-05-17T04:48:14.296Z,5.53
2023-05-17T04:52:23.302Z,7.03
2023-05-17T04:56:32.878Z,4.53
2023-05-17T05:00:41.839Z,5.77
2023-05-17T05:04:53.150Z,5.63
2023-05-17T05:09:02.343Z,5.87
2023-05-17T05:13:11.524Z,4.23
2023-05-17T05:17:20.651Z,5.00
2023-05-17T05:21:32.440Z,4.50
2023-05-17T05:25:41.518Z,5.20
2023-05-17T05:29:50.593Z,6.47
2023-05-17T05:33:59.730Z,4.23
2023-05-17T05:38:10.401Z,5.60
2023-05-17T05:42:19.389Z,4.17
2023-05-17T05:46:28.773Z,6.07
2023-05-17T05:50:38.213Z,6.63
2023-05-17T05:54:48.789Z,4.23
2023-05-17T05:58:58.099Z,3.27
2023-05-17T06:03:07.798Z,3.53
2023-05-17T06:07:17.032Z,4.13
2023-05-17T06:11:28.035Z,5.33
2023-05-17T06:15:37.327Z,5.50
2023-05-17T06:19:46.447Z,5.50
2023-05-17T06:23:55.454Z,4.67
2023-05-17T06:28:09.288Z,4.50
2023-05-17T06:32:18.354Z,4.73
2023-05-17T06:36:27.449Z,4.33
2023-05-17T06:40:36.732Z,6.17
2023-05-17T06:44:47.553Z,5.03
2023-05-17T06:48:56.598Z,4.10
2023-05-17T06:53:06.526Z,4.47
2023-05-17T06:57:15.740Z,6.17
2023-05-17T07:01:26.304Z,7.43
2023-05-17T07:05:35.569Z,7.60
2023-05-17T07:09:44.671Z,2.80
2023-05-17T07:13:54.446Z,2.37
2023-05-17T07:18:05.468Z,12.90
2023-05-17T07:22:14.998Z,6.13
2023-05-17T07:26:24.020Z,4.67
2023-05-17T07:30:33.336Z,4.63
2023-05-17T07:34:44.041Z,6.27
2023-05-17T07:38:53.061Z,2.93
2023-05-17T07:43:02.063Z,4.97
2023-05-17T07:47:12.121Z,3.90
2023-05-17T07:51:22.630Z,3.37
2023-05-17T07:55:31.715Z,2.47
2023-05-17T07:59:42.878Z,2.10
2023-05-17T08:03:51.997Z,1.90
2023-05-17T08:08:02.662Z,3.87
2023-05-17T08:12:11.892Z,2.80
2023-05-17T08:16:21.160Z,3.17
2023-05-17T08:20:30.468Z,3.00
2023-05-17T08:24:45.350Z,2.87
2023-05-17T08:28:54.682Z,1.73
2023-05-17T08:33:03.926Z,2.80
2023-05-17T08:37:13.197Z,2.60
2023-05-17T08:41:24.163Z,3.40
2023-05-17T08:45:33.892Z,2.50
2023-05-17T08:49:44.882Z,4.07
2023-05-17T08:53:54.892Z,1.67
2023-05-17T08:58:07.554Z,2.27
2023-05-17T09:02:17.257Z,2.17
2023-05-17T09:06:26.791Z,2.90
2023-05-17T09:10:36.032Z,2.97
2023-05-17T09:14:46.771Z,2.57
2023-05-17T09:18:56.883Z,5.40
2023-05-17T09:23:06.280Z,2.30
2023-05-17T09:27:19.230Z,3.63
2023-05-17T09:31:44.378Z,3.83
2023-05-17T09:36:18.968Z,6.27
2023-05-17T10:14:13.533Z,3.80
2023-05-17T10:18:33.271Z,3.33
2023-05-17T10:22:49.240Z,2.93
2023-05-17T10:27:01.040Z,4.20
2023-05-17T10:31:10.472Z,2.80
2023-05-17T10:35:20.757Z,3.63
2023-05-17T10:39:39.215Z,5.30
2023-05-17T10:43:51.128Z,3.73
2023-05-17T10:48:21.202Z,1.83
2023-05-17T11:40:18.742Z,3.20
2023-05-17T11:49:15.581Z,3.00
2023-05-17T11:53:41.452Z,2.53
2023-05-17T11:57:53.097Z,4.77
2023-05-17T12:02:12.962Z,11.73
2023-05-17T12:06:23.691Z,4.23
2023-05-17T12:10:35.273Z,2.17
2023-05-17T12:14:46.662Z,4.90
2023-05-17T12:18:57.679Z,3.77
2023-05-17T12:23:07.227Z,3.17
2023-05-17T12:27:28.142Z,2.77
2023-05-17T12:31:41.201Z,2.70
2023-05-17T12:35:53.183Z,4.17
2023-05-17T12:40:14.132Z,3.27
2023-05-17T13:47:19.760Z,3.30
2023-05-17T15:07:51.502Z,8.87
2023-05-17T15:16:43.029Z,7.07
2023-05-17T15:20:52.615Z,5.40
2023-05-17T15:25:03.691Z,3.87
2023-05-17T15:29:13.866Z,4.37
2023-05-17T15:33:28.168Z,5.77
2023-05-17T15:47:38.627Z,7.53
2023-05-17T15:56:38.704Z,6.70
2023-05-17T16:00:47.921Z,7.37
2023-05-17T16:05:00.498Z,5.53
2023-05-17T16:09:12.508Z,7.27
2023-05-17T16:13:21.614Z,5.57
2023-05-17T16:17:31.140Z,5.83
2023-05-17T16:21:41.846Z,5.60
2023-05-17T16:25:50.775Z,7.37
2023-05-17T16:29:59.900Z,6.97
2023-05-17T16:34:09.004Z,5.83
2023-05-17T16:38:19.672Z,5.90
2023-05-17T16:42:28.712Z,5.50
2023-05-17T16:46:39.017Z,7.07
2023-05-17T16:50:49.877Z,5.60
2023-05-17T16:55:03.717Z,6.03
2023-05-17T16:59:13.380Z,6.13
2023-05-17T17:03:22.612Z,5.30
2023-05-17T17:07:32.404Z,5.40
2023-05-17T17:11:43.155Z,7.30
2023-05-17T17:15:52.842Z,5.93
2023-05-17T17:20:01.978Z,8.17
2023-05-17T17:24:11.317Z,6.07
2023-05-17T17:28:21.831Z,7.03
2023-05-17T17:32:30.987Z,8.07
2023-05-17T17:36:40.182Z,7.97
2023-05-17T17:40:49.448Z,6.97
2023-05-17T17:45:00.369Z,5.67
2023-05-17T17:49:09.615Z,5.47
2023-05-17T17:53:19.799Z,6.63
2023-05-17T17:57:29.001Z,5.43
2023-05-17T18:01:39.773Z,5.10
2023-05-17T18:05:48.952Z,7.30
2023-05-17T18:09:58.798Z,6.90
2023-05-17T18:14:08.152Z,7.03
2023-05-17T18:18:18.652Z,7.03
2023-05-17T18:22:27.780Z,5.77
2023-05-17T18:26:36.958Z,5.37
2023-05-17T18:30:46.258Z,7.10
2023-05-17T18:34:56.930Z,5.63
2023-05-17T18:39:06.400Z,6.67
2023-05-17T18:43:15.505Z,8.17
2023-05-17T18:47:25.193Z,6.83
2023-05-17T18:51:36.210Z,7.00
2023-05-17T18:55:50.118Z,5.67
2023-05-17T19:35:56.730Z,8.70
2023-05-17T19:40:06.970Z,7.40
2023-05-17T19:44:17.166Z,7.07
2023-05-17T19:48:35.679Z,7.77
2023-05-17T19:52:46.634Z,6.63
2023-05-17T19:56:56.237Z,5.20
2023-05-17T20:01:05.443Z,8.07
2023-05-17T20:05:25.675Z,5.97
2023-05-17T20:09:36.773Z,6.67
2023-05-17T20:13:46.024Z,6.67
2023-05-17T20:17:55.345Z,6.50
2023-05-17T20:22:04.897Z,8.93
2023-05-17T20:26:26.026Z,6.27
2023-05-17T20:30:35.322Z,7.00
2023-05-17T20:34:45.660Z,5.37
2023-05-17T20:38:55.712Z,6.90
2023-05-17T20:43:10.082Z,6.27
2023-05-17T20:47:19.106Z,6.47
2023-05-17T20:51:28.660Z,5.37
2023-05-17T20:55:37.816Z,7.57
2023-05-17T20:59:49.202Z,4.87
2023-05-17T21:03:58.753Z,4.83
2023-05-17T21:08:08.821Z,4.70
2023-05-17T21:12:18.012Z,6.37
2023-05-17T21:16:29.534Z,5.90
2023-05-17T21:20:39.398Z,6.53
2023-05-17T21:24:49.949Z,4.87
2023-05-17T21:29:00.186Z,4.83
2023-05-17T21:33:10.999Z,5.80
2023-05-17T21:37:20.903Z,6.03
2023-05-17T21:41:30.036Z,5.30
2023-05-17T21:45:39.513Z,7.07
2023-05-17T21:49:50.254Z,7.03
2023-05-17T21:53:59.504Z,8.63
2023-05-17T21:58:08.740Z,7.17
2023-05-17T22:02:18.113Z,9.70
2023-05-17T22:06:29.092Z,8.60
2023-05-17T22:10:40.798Z,9.00
2023-05-17T22:14:50.704Z,6.93
2023-05-17T22:19:00.842Z,9.13
2023-05-17T22:23:11.633Z,8.27
2023-05-17T22:27:20.932Z,9.20
2023-05-17T22:31:30.141Z,7.90
2023-05-17T22:35:41.390Z,6.60
2023-05-17T22:39:52.382Z,8.27
2023-05-17T22:44:01.656Z,11.90
2023-05-17T22:48:11.176Z,8.37
2023-05-17T22:52:20.831Z,8.63
2023-05-17T22:56:31.586Z,8.70
2023-05-17T23:00:40.748Z,7.93
2023-05-17T23:04:49.946Z,7.87
2023-05-17T23:09:00.605Z,10.17
2023-05-17T23:13:11.267Z,9.33
2023-05-17T23:17:20.422Z,9.50
2023-05-17T23:21:33.529Z,9.47
2023-05-17T23:25:42.596Z,7.93
2023-05-17T23:29:55.555Z,9.30
2023-05-17T23:34:04.751Z,9.70
2023-05-17T23:38:14.044Z,9.63
2023-05-17T23:42:23.164Z,9.83
2023-05-17T23:46:35.031Z,7.50
2023-05-17T23:50:44.289Z,10.13
2023-05-17T23:54:57.630Z,9.63
2023-05-17T23:59:07.103Z,10.03
